Time;durP1;ratioP1;P1;durP2;ratioP2;P2;SDS_P1;SDS_P2;PMS_P1;PMS_P2;Temp;Humidity;BMP_temperature;BMP_pressure;BME280_temperature;BME280_humidity;BME280_pressure;Samples;Min_cycle;Max_cycle;Signal;HPM_P1;HPM_P2
2023/06/15 00:01:22;;;;;;;6.20;2.72;;;16.60;99.90;;;;;;7390014;19;20014;-92
2023/06/15 00:03:48;;;;;;;7.15;3.17;;;16.60;99.90;;;;;;7387236;19;20049;-92
2023/06/15 00:06:15;;;;;;;6.47;2.47;;;16.60;99.90;;;;;;7385076;19;20479;-92
2023/06/15 00:08:42;;;;;;;5.22;3.00;;;16.50;99.90;;;;;;7388815;19;20642;-91
2023/06/15 00:11:12;;;;;;;8.68;2.70;;;16.50;99.90;;;;;;7386567;19;20010;-93
2023/06/15 00:13:39;;;;;;;4.32;2.65;;;16.40;99.90;;;;;;7386243;19;20015;-92
2023/06/15 00:16:06;;;;;;;7.95;3.13;;;16.40;99.90;;;;;;7387122;19;20481;-93
2023/06/15 00:18:37;;;;;;;5.97;2.97;;;16.40;99.90;;;;;;7382556;19;20475;-92
2023/06/15 00:21:26;;;;;;;6.93;3.17;;;16.40;99.90;;;;;;7385084;19;20022;-92
2023/06/15 00:23:55;;;;;;;6.13;3.10;;;16.30;99.90;;;;;;7381962;19;20010;-93
2023/06/15 00:26:22;;;;;;;6.25;3.17;;;16.30;99.90;;;;;;7379485;19;20018;-92
2023/06/15 00:28:53;;;;;;;4.22;2.63;;;16.30;99.90;;;;;;7383929;19;20015;-92
2023/06/15 00:31:25;;;;;;;5.22;2.92;;;16.20;99.90;;;;;;7383534;19;20026;-94
2023/06/15 00:34:05;;;;;;;9.20;2.95;;;16.20;99.90;;;;;;7383341;19;20018;-91
2023/06/15 00:36:46;;;;;;;6.03;2.95;;;16.20;99.90;;;;;;7384545;19;20012;-91
2023/06/15 00:39:13;;;;;;;6.07;2.90;;;16.10;99.90;;;;;;7383954;19;20376;-92
2023/06/15 00:41:41;;;;;;;5.63;3.00;;;16.10;99.90;;;;;;7385191;19;20022;-92
2023/06/15 00:44:16;;;;;;;8.15;3.65;;;16.10;99.90;;;;;;7385480;19;20505;-91
2023/06/15 00:46:43;;;;;;;7.82;3.40;;;16.00;99.90;;;;;;7382876;19;20625;-91
2023/06/15 00:49:11;;;;;;;7.88;3.22;;;16.00;99.90;;;;;;7383708;19;20022;-90
2023/06/15 00:51:43;;;;;;;5.68;3.25;;;15.90;99.90;;;;;;7380311;19;21091;-90
2023/06/15 00:54:23;;;;;;;7.10;3.20;;;15.90;99.90;;;;;;7377032;19;20103;-91
2023/06/15 00:56:56;;;;;;;6.88;3.30;;;15.90;99.90;;;;;;7380159;19;20614;-92
2023/06/15 00:59:24;;;;;;;7.90;3.60;;;15.80;99.90;;;;;;7379208;19;20045;-91
2023/06/15 01:01:54;;;;;;;5.15;3.17;;;15.80;99.90;;;;;;7383963;19;20401;-90
2023/06/15 01:04:24;;;;;;;6.63;3.05;;;15.80;99.90;;;;;;7374647;19;20111;-91
2023/06/15 01:07:01;;;;;;;8.13;3.38;;;15.80;99.90;;;;;;7377538;19;20031;-89
2023/06/15 01:09:36;;;;;;;6.75;3.35;;;15.80;99.90;;;;;;7380518;19;20849;-91
2023/06/15 01:12:12;;;;;;;6.63;3.60;;;15.80;99.90;;;;;;7381468;19;20014;-92
2023/06/15 01:14:41;;;;;;;;;;;15.70;99.90;;;;;;7384485;19;20015;-92
2023/06/15 01:17:13;;;;;;;9.55;3.75;;;15.70;99.90;;;;;;7378075;19;19922;-91
2023/06/15 01:19:57;;;;;;;7.40;3.58;;;15.60;99.90;;;;;;7372560;19;20042;-89
2023/06/15 01:22:58;;;;;;;7.60;3.67;;;15.60;99.90;;;;;;7379271;19;20014;-91
2023/06/15 01:25:40;;;;;;;7.95;3.97;;;15.60;99.90;;;;;;7379495;19;20026;-92
2023/06/15 01:28:10;;;;;;;6.07;3.70;;;15.60;99.90;;;;;;7374088;19;20097;-90
2023/06/15 01:30:42;;;;;;;6.55;3.55;;;15.50;99.90;;;;;;7376259;19;20022;-91
2023/06/15 01:33:08;;;;;;;;;;;15.50;99.90;;;;;;7378780;19;20018;-91
2023/06/15 01:35:36;;;;;;;7.95;3.95;;;15.50;99.90;;;;;;7383976;19;19966;-91
2023/06/15 01:38:10;;;;;;;9.82;3.78;;;15.40;99.90;;;;;;7375815;19;20015;-91
2023/06/15 01:40:45;;;;;;;6.10;4.07;;;15.40;99.90;;;;;;7380169;19;20094;-90
2023/06/15 01:43:15;;;;;;;7.28;3.78;;;15.40;99.90;;;;;;7378456;19;20018;-92
2023/06/15 01:45:43;;;;;;;8.30;4.15;;;15.40;99.90;;;;;;7378682;19;20338;-92
2023/06/15 01:48:14;;;;;;;8.18;3.97;;;15.40;99.90;;;;;;7375438;19;20039;-91
2023/06/15 01:50:43;;;;;;;7.97;3.83;;;15.30;99.90;;;;;;7392751;19;20025;-90
2023/06/15 01:53:11;;;;;;;8.48;3.88;;;15.30;99.90;;;;;;7400502;19;20407;-91
2023/06/15 01:55:38;;;;;;;6.72;3.67;;;15.30;99.90;;;;;;7384244;19;20497;-90
2023/06/15 01:58:05;;;;;;;6.07;3.90;;;15.30;99.90;;;;;;7379676;19;20019;-91
2023/06/15 02:00:31;;;;;;;5.35;3.70;;;15.20;99.90;;;;;;7376996;19;20021;-91
2023/06/15 02:02:59;;;;;;;6.20;3.72;;;15.20;99.90;;;;;;7378447;19;20077;-91
2023/06/15 02:05:29;;;;;;;7.25;4.00;;;15.10;99.90;;;;;;7372769;19;20475;-91
2023/06/15 02:07:56;;;;;;;5.50;4.07;;;15.10;99.90;;;;;;7370860;19;20025;-91
2023/06/15 02:10:23;;;;;;;7.85;4.15;;;15.10;99.90;;;;;;7379428;19;20019;-91
2023/06/15 02:12:51;;;;;;;6.47;4.25;;;15.00;99.90;;;;;;7389280;19;20010;-91
2023/06/15 02:15:21;;;;;;;8.38;4.65;;;15.10;99.90;;;;;;7387944;19;20017;-92
2023/06/15 02:17:48;;;;;;;6.72;4.07;;;15.00;99.90;;;;;;7387678;19;20478;-90
2023/06/15 02:20:16;;;;;;;9.15;4.70;;;15.00;99.90;;;;;;7387391;19;20086;-91
2023/06/15 02:22:45;;;;;;;7.07;4.93;;;15.00;99.90;;;;;;7388758;19;20030;-91
2023/06/15 02:25:15;;;;;;;7.80;4.20;;;14.90;99.90;;;;;;7387837;19;20018;-92
2023/06/15 02:27:42;;;;;;;8.40;4.90;;;14.90;99.90;;;;;;7387712;19;20018;-91
2023/06/15 02:30:12;;;;;;;6.53;3.88;;;14.90;99.90;;;;;;7388571;19;20502;-93
2023/06/15 02:32:45;;;;;;;9.13;5.05;;;14.80;99.90;;;;;;7383422;19;20645;-92
2023/06/15 02:35:15;;;;;;;8.70;4.95;;;14.80;99.90;;;;;;7387573;19;20014;-91
2023/06/15 02:37:42;;;;;;;10.52;4.82;;;14.80;99.90;;;;;;7375798;19;20090;-90
2023/06/15 02:40:09;;;;;;;8.30;4.47;;;14.80;99.90;;;;;;7381084;19;20388;-91
2023/06/15 02:42:36;;;;;;;8.70;5.10;;;14.70;99.90;;;;;;7386874;19;20017;-92
2023/06/15 02:45:06;;;;;;;9.27;4.30;;;14.70;99.90;;;;;;7387005;19;20061;-91
2023/06/15 02:47:40;;;;;;;7.15;4.88;;;14.60;99.90;;;;;;7385543;19;20018;-92
2023/06/15 02:50:08;;;;;;;8.55;4.95;;;14.60;99.90;;;;;;7387290;19;20045;-91
2023/06/15 02:52:40;;;;;;;8.73;4.65;;;14.60;99.90;;;;;;7387127;19;20038;-90
2023/06/15 02:55:13;;;;;;;10.02;4.55;;;14.60;99.90;;;;;;7384338;19;20018;-90
2023/06/15 02:57:43;;;;;;;10.30;4.10;;;14.50;99.90;;;;;;7386636;19;20033;-92
2023/06/15 03:00:36;;;;;;;7.07;4.68;;;14.50;99.90;;;;;;7387399;19;20018;-93
2023/06/15 03:03:29;;;;;;;6.35;4.25;;;14.50;99.90;;;;;;7382739;19;20495;-94
2023/06/15 03:05:58;;;;;;;10.30;4.75;;;14.50;99.90;;;;;;7382355;19;20022;-91
2023/06/15 03:08:31;;;;;;;5.97;4.68;;;14.50;99.90;;;;;;7387005;19;20066;-92
2023/06/15 03:11:08;;;;;;;;;;;14.40;99.90;;;;;;7386005;19;20035;-92
2023/06/15 03:13:36;;;;;;;8.15;4.78;;;14.50;99.90;;;;;;7387260;19;19945;-92
2023/06/15 03:16:07;;;;;;;7.85;4.40;;;14.40;99.90;;;;;;7385189;19;20010;-92
2023/06/15 03:18:40;;;;;;;7.32;4.93;;;14.40;99.90;;;;;;7386999;19;20702;-91
2023/06/15 03:21:07;;;;;;;8.10;4.88;;;14.40;99.90;;;;;;7386926;19;20065;-91
2023/06/15 03:23:38;;;;;;;8.15;4.55;;;14.30;99.90;;;;;;7382697;19;20018;-92
2023/06/15 03:26:06;;;;;;;9.38;5.45;;;14.40;99.90;;;;;;7386140;19;20611;-91
2023/06/15 03:28:38;;;;;;;7.75;4.63;;;14.30;99.90;;;;;;7385647;19;20022;-91
2023/06/15 03:31:08;;;;;;;7.65;5.28;;;14.30;99.90;;;;;;7381048;19;20018;-90
2023/06/15 03:33:38;;;;;;;10.07;5.07;;;14.30;99.90;;;;;;7382091;19;20036;-93
2023/06/15 03:36:05;;;;;;;9.20;4.95;;;14.30;99.90;;;;;;7382820;19;20025;-92
2023/06/15 03:38:34;;;;;;;8.68;4.85;;;14.30;99.90;;;;;;7381147;19;20028;-92
2023/06/15 03:41:07;;;;;;;8.77;5.22;;;14.20;99.90;;;;;;7386393;19;20498;-92
2023/06/15 03:43:37;;;;;;;12.52;5.53;;;14.30;99.90;;;;;;7385022;19;20019;-92
2023/06/15 03:46:06;;;;;;;9.15;5.38;;;14.30;99.90;;;;;;7380369;19;20007;-91
2023/06/15 03:48:34;;;;;;;11.15;5.32;;;14.30;99.90;;;;;;7387457;19;20022;-93
2023/06/15 03:51:01;;;;;;;10.45;5.35;;;14.30;99.90;;;;;;7386428;19;20990;-92
2023/06/15 03:53:28;;;;;;;10.50;5.40;;;14.30;99.90;;;;;;7386148;19;20018;-93
2023/06/15 03:55:56;;;;;;;9.02;5.40;;;14.20;99.90;;;;;;7382766;19;20015;-93
2023/06/15 03:58:24;;;;;;;10.13;5.60;;;14.30;99.90;;;;;;7383454;19;20026;-91
2023/06/15 04:00:52;;;;;;;8.10;5.47;;;14.30;99.90;;;;;;7384364;19;20058;-92
2023/06/15 04:03:19;;;;;;;9.93;5.50;;;14.30;99.90;;;;;;7386322;19;20043;-92
2023/06/15 04:05:48;;;;;;;8.10;5.28;;;14.30;99.90;;;;;;7385864;19;20033;-93
2023/06/15 04:08:17;;;;;;;9.65;5.78;;;14.40;99.90;;;;;;7386264;19;20039;-92
2023/06/15 04:10:47;;;;;;;8.93;5.20;;;14.40;99.90;;;;;;7382721;19;20019;-93
2023/06/15 04:13:14;;;;;;;9.00;5.60;;;14.40;99.90;;;;;;7386023;19;20017;-93
2023/06/15 04:15:42;;;;;;;6.85;5.00;;;14.50;99.90;;;;;;7385921;19;20014;-91
2023/06/15 04:18:14;;;;;;;8.05;4.97;;;14.50;99.90;;;;;;7383398;19;20074;-92
2023/06/15 04:20:49;;;;;;;7.13;5.38;;;14.50;99.90;;;;;;7384809;19;20014;-92
2023/06/15 04:23:30;;;;;;;8.32;5.47;;;14.50;99.90;;;;;;7390963;19;20011;-93
2023/06/15 04:26:28;;;;;;;7.95;5.30;;;14.50;99.90;;;;;;7383428;19;20014;-93
2023/06/15 04:29:00;;;;;;;7.70;5.90;;;14.60;99.90;;;;;;7379702;19;20029;-85
2023/06/15 04:31:31;;;;;;;8.27;5.63;;;14.60;99.90;;;;;;7372708;19;20030;-86
2023/06/15 04:33:59;;;;;;;11.02;5.55;;;14.70;99.90;;;;;;7368001;19;20220;-87
2023/06/15 04:36:31;;;;;;;10.60;5.85;;;14.80;99.90;;;;;;7373348;19;20295;-87
2023/06/15 04:38:59;;;;;;;8.48;5.20;;;14.90;99.90;;;;;;7367755;19;20018;-87
2023/06/15 04:41:29;;;;;;;11.60;5.35;;;14.90;99.90;;;;;;7373339;19;20022;-87
2023/06/15 04:44:01;;;;;;;8.82;5.10;;;15.00;99.90;;;;;;7373153;19;20090;-89
2023/06/15 04:46:27;;;;;;;6.90;5.10;;;15.10;99.90;;;;;;7373330;19;20324;-85
2023/06/15 04:48:56;;;;;;;6.25;4.97;;;15.10;99.90;;;;;;7369165;19;20015;-87
2023/06/15 04:51:23;;;;;;;6.85;4.93;;;15.20;99.90;;;;;;7370975;19;20053;-86
2023/06/15 04:53:50;;;;;;;7.38;5.13;;;15.30;99.90;;;;;;7370887;19;20046;-86
2023/06/15 04:56:16;;;;;;;9.07;5.38;;;15.50;99.90;;;;;;7364062;19;20094;-86
2023/06/15 04:58:44;;;;;;;9.35;4.90;;;15.50;99.90;;;;;;7372207;19;20126;-87
2023/06/15 05:01:10;;;;;;;7.78;4.82;;;15.70;99.90;;;;;;7370260;19;20011;-85
2023/06/15 05:03:41;;;;;;;7.45;4.40;;;15.70;99.90;;;;;;7369898;19;20283;-86
2023/06/15 05:06:08;;;;;;;7.70;4.13;;;15.80;99.90;;;;;;7369961;19;20018;-86
2023/06/15 05:08:37;;;;;;;8.35;5.38;;;16.00;99.90;;;;;;7372235;19;20033;-87
2023/06/15 05:11:05;;;;;;;11.30;4.72;;;16.30;99.90;;;;;;7369626;19;20093;-87
2023/06/15 05:13:32;;;;;;;6.68;3.63;;;16.70;99.90;;;;;;7368140;19;20035;-85
2023/06/15 05:16:04;;;;;;;8.63;4.25;;;17.10;99.90;;;;;;7368772;19;20051;-86
2023/06/15 05:18:33;;;;;;;7.13;4.00;;;17.40;99.90;;;;;;7368776;19;20098;-85
2023/06/15 05:21:00;;;;;;;7.78;4.15;;;17.70;99.90;;;;;;7362865;19;20026;-84
2023/06/15 05:23:28;;;;;;;9.45;3.40;;;17.90;99.90;;;;;;7363630;19;20014;-85
2023/06/15 05:25:55;;;;;;;11.70;8.15;;;18.00;99.90;;;;;;7366675;19;20018;-85
2023/06/15 05:28:22;;;;;;;7.10;5.32;;;18.30;99.90;;;;;;7368974;19;20022;-85
2023/06/15 05:30:48;;;;;;;8.27;4.68;;;18.40;99.90;;;;;;7371120;19;20056;-85
2023/06/15 05:33:15;;;;;;;7.82;4.28;;;18.60;99.90;;;;;;7362816;19;20359;-83
2023/06/15 05:35:41;;;;;;;7.93;3.95;;;18.80;99.90;;;;;;7371352;19;20705;-84
2023/06/15 05:38:08;;;;;;;11.13;3.70;;;19.00;99.90;;;;;;7374265;19;20021;-87
2023/06/15 05:40:38;;;;;;;8.05;3.65;;;19.20;99.90;;;;;;7376114;19;20483;-88
2023/06/15 05:43:10;;;;;;;9.15;4.55;;;19.50;99.90;;;;;;7368350;19;20025;-85
2023/06/15 05:45:36;;;;;;;12.43;5.72;;;19.70;99.90;;;;;;7376784;19;20025;-82
2023/06/15 05:48:08;;;;;;;9.45;3.40;;;19.80;99.90;;;;;;7377491;19;20022;-84
2023/06/15 05:50:35;;;;;;;8.65;3.30;;;20.00;99.90;;;;;;7369234;19;20018;-84
2023/06/15 05:53:02;;;;;;;5.35;3.08;;;20.10;99.90;;;;;;7374964;19;20102;-84
2023/06/15 05:55:30;;;;;;;10.55;6.57;;;20.20;99.90;;;;;;7379021;19;20014;-86
2023/06/15 05:57:57;;;;;;;9.80;5.60;;;20.50;99.90;;;;;;7391951;19;20010;-91
2023/06/15 06:00:25;;;;;;;6.20;3.25;;;20.60;99.90;;;;;;7392133;19;20014;-92
2023/06/15 06:03:01;;;;;;;6.93;4.10;;;20.80;99.90;;;;;;7395645;19;20022;-90
2023/06/15 06:05:38;;;;;;;;;;;21.00;99.90;;;;;;7388653;19;20077;-90
2023/06/15 06:08:04;;;;;;;8.02;3.22;;;21.00;99.90;;;;;;7388235;19;19941;-91
2023/06/15 06:10:32;;;;;;;8.98;2.95;;;21.10;99.90;;;;;;7384063;19;20026;-92
2023/06/15 06:13:20;;;;;;;7.32;2.92;;;21.20;99.90;;;;;;7391885;19;20053;-92
2023/06/15 06:15:46;;;;;;;4.95;2.85;;;21.40;99.90;;;;;;7392891;19;20026;-91
2023/06/15 06:18:15;;;;;;;6.55;2.50;;;21.40;99.30;;;;;;7391626;19;20078;-92
2023/06/15 06:20:41;;;;;;;9.73;6.20;;;21.60;97.00;;;;;;7383649;19;20089;-84
2023/06/15 06:23:08;;;;;;;7.15;2.63;;;21.60;97.00;;;;;;7386991;19;20498;-85
2023/06/15 06:25:35;;;;;;;5.45;2.72;;;21.70;96.30;;;;;;7380960;19;20112;-82
2023/06/15 06:28:02;;;;;;;8.65;2.72;;;21.80;94.90;;;;;;7377982;19;20018;-82
2023/06/15 06:30:28;;;;;;;10.45;3.15;;;21.80;95.00;;;;;;7380534;19;20110;-85
2023/06/15 06:32:55;;;;;;;7.20;3.63;;;22.00;93.90;;;;;;7387405;19;20005;-83
2023/06/15 06:35:21;;;;;;;8.85;4.43;;;22.20;93.90;;;;;;7384316;19;20022;-84
2023/06/15 06:37:47;;;;;;;5.50;2.80;;;22.30;94.40;;;;;;7383049;19;20025;-85
2023/06/15 06:40:14;;;;;;;8.52;4.07;;;22.50;94.30;;;;;;7384660;19;20026;-83
2023/06/15 06:42:40;;;;;;;9.27;3.05;;;22.70;94.00;;;;;;7379508;19;20015;-83
2023/06/15 06:45:07;;;;;;;8.25;2.72;;;22.80;93.70;;;;;;7375691;19;20018;-80
2023/06/15 06:47:34;;;;;;;6.10;2.90;;;23.00;92.80;;;;;;7375905;19;20026;-81
2023/06/15 06:50:00;;;;;;;4.70;2.33;;;23.00;92.40;;;;;;7373679;19;20030;-85
2023/06/15 06:52:27;;;;;;;8.10;5.35;;;23.20;92.90;;;;;;7374412;19;20103;-79
2023/06/15 06:54:53;;;;;;;7.93;3.58;;;23.20;91.70;;;;;;7377013;19;20045;-79
2023/06/15 06:57:20;;;;;;;6.22;2.83;;;23.40;90.50;;;;;;7378498;19;20033;-80
2023/06/15 06:59:46;;;;;;;7.47;2.63;;;23.50;86.00;;;;;;7377540;19;20018;-79
2023/06/15 07:02:13;;;;;;;8.45;2.92;;;23.50;81.10;;;;;;7372252;19;20035;-79
2023/06/15 07:04:40;;;;;;;4.47;2.30;;;23.70;81.20;;;;;;7374520;19;20663;-80
2023/06/15 07:07:06;;;;;;;4.15;3.00;;;23.90;80.30;;;;;;7380453;19;20030;-82
2023/06/15 07:09:39;;;;;;;8.85;4.72;;;24.10;76.40;;;;;;7382995;19;20011;-83
2023/06/15 07:12:06;;;;;;;7.53;3.28;;;24.30;74.30;;;;;;7389971;19;20022;-83
2023/06/15 07:14:35;;;;;;;7.65;2.70;;;24.30;73.00;;;;;;7397459;19;20028;-83
2023/06/15 07:17:01;;;;;;;4.25;2.35;;;24.30;71.50;;;;;;7382869;19;20026;-81
2023/06/15 07:19:28;;;;;;;7.18;2.55;;;24.40;69.80;;;;;;7376768;19;20117;-79
2023/06/15 07:21:54;;;;;;;10.82;3.33;;;24.70;70.80;;;;;;7377077;19;20019;-78
2023/06/15 07:24:21;;;;;;;4.22;2.47;;;24.90;71.20;;;;;;7373049;19;20699;-78
2023/06/15 07:26:47;;;;;;;3.92;2.72;;;25.10;70.30;;;;;;7378206;19;20018;-78
2023/06/15 07:29:14;;;;;;;8.05;3.92;;;25.20;68.40;;;;;;7374007;19;20022;-79
2023/06/15 07:31:40;;;;;;;11.35;4.22;;;25.40;66.00;;;;;;7374287;19;20026;-80
2023/06/15 07:34:12;;;;;;;10.27;4.55;;;25.40;64.00;;;;;;7385972;19;20055;-84
2023/06/15 07:36:39;;;;;;;7.53;2.97;;;25.70;62.40;;;;;;7406908;19;20022;-84
2023/06/15 07:39:06;;;;;;;7.50;3.28;;;25.80;60.30;;;;;;7392200;19;20010;-85
2023/06/15 07:41:34;;;;;;;9.10;3.70;;;25.70;59.10;;;;;;7378829;19;20015;-83
2023/06/15 07:44:01;;;;;;;13.30;8.10;;;26.10;58.80;;;;;;7379646;19;20041;-86
2023/06/15 07:46:28;;;;;;;11.57;6.25;;;26.30;57.20;;;;;;7385619;19;20021;-87
2023/06/15 07:48:55;;;;;;;16.67;14.65;;;26.50;55.40;;;;;;7378578;19;20018;-86
2023/06/15 07:51:21;;;;;;;5.68;3.25;;;26.70;55.70;;;;;;7374657;19;20070;-88
2023/06/15 07:53:48;;;;;;;7.95;7.07;;;27.00;54.70;;;;;;7387837;19;20014;-92
2023/06/15 07:56:14;;;;;;;22.27;19.98;;;27.40;54.40;;;;;;7395875;19;20014;-91
2023/06/15 07:58:40;;;;;;;13.00;11.68;;;27.30;53.20;;;;;;7379111;19;20023;-89
2023/06/15 08:01:07;;;;;;;18.88;16.98;;;27.60;52.30;;;;;;7379637;19;20038;-88
2023/06/15 08:03:34;;;;;;;7.32;2.67;;;27.70;51.40;;;;;;7380110;19;20104;-90
2023/06/15 08:06:00;;;;;;;8.57;6.00;;;27.80;51.50;;;;;;7376699;19;20038;-90
2023/06/15 08:08:27;;;;;;;20.08;18.02;;;27.80;50.30;;;;;;7374488;19;20022;-87
2023/06/15 08:10:54;;;;;;;9.63;7.22;;;27.90;49.80;;;;;;7375823;19;20070;-86
2023/06/15 08:13:22;;;;;;;10.45;5.53;;;27.90;48.60;;;;;;7370927;19;20018;-87
2023/06/15 08:15:49;;;;;;;7.60;5.00;;;27.70;49.40;;;;;;7371150;19;20011;-88
2023/06/15 08:18:15;;;;;;;9.18;8.13;;;27.90;48.40;;;;;;7379169;19;20018;-89
2023/06/15 08:20:43;;;;;;;12.48;10.63;;;27.90;46.50;;;;;;7378702;19;20023;-88
2023/06/15 08:23:10;;;;;;;11.05;9.90;;;27.90;47.20;;;;;;7371744;19;20019;-86
2023/06/15 08:25:39;;;;;;;7.25;4.18;;;28.10;46.90;;;;;;7372481;19;20021;-91
2023/06/15 08:28:06;;;;;;;6.18;3.05;;;28.30;46.90;;;;;;7373007;19;20026;-91
2023/06/15 08:30:32;;;;;;;6.30;4.75;;;28.40;46.30;;;;;;7369023;19;20019;-89
2023/06/15 08:33:01;;;;;;;6.38;3.15;;;28.60;45.80;;;;;;7376127;19;20121;-91
2023/06/15 08:35:28;;;;;;;8.18;3.60;;;28.50;45.80;;;;;;7377214;19;20396;-90
2023/06/15 08:37:55;;;;;;;5.53;3.55;;;28.50;45.90;;;;;;7372488;19;20696;-88
2023/06/15 08:40:21;;;;;;;6.65;3.58;;;28.60;45.30;;;;;;7371623;19;20387;-89
2023/06/15 08:42:50;;;;;;;6.22;2.75;;;28.60;44.80;;;;;;7372907;19;20026;-88
2023/06/15 08:45:18;;;;;;;7.50;2.53;;;28.80;45.00;;;;;;7375684;19;20097;-91
2023/06/15 08:47:46;;;;;;;6.53;3.97;;;29.10;44.40;;;;;;7371454;19;20015;-90
2023/06/15 08:50:12;;;;;;;18.92;17.10;;;28.90;43.10;;;;;;7374351;19;20586;-89
2023/06/15 08:52:43;;;;;;;5.93;2.78;;;29.00;43.10;;;;;;7367854;19;20018;-87
2023/06/15 08:55:15;;;;;;;5.78;2.75;;;29.10;43.40;;;;;;7374146;19;20073;-89
2023/06/15 08:57:42;;;;;;;4.32;2.35;;;29.20;43.40;;;;;;7372744;19;20094;-86
2023/06/15 09:00:09;;;;;;;5.03;2.60;;;29.20;42.60;;;;;;7369661;19;20660;-90
2023/06/15 09:02:46;;;;;;;3.80;2.47;;;29.50;42.70;;;;;;7368383;19;20014;-85
2023/06/15 09:05:15;;;;;;;9.32;2.78;;;29.50;41.80;;;;;;7369663;19;20025;-83
2023/06/15 09:07:41;;;;;;;7.45;2.33;;;29.80;43.00;;;;;;7369083;19;20026;-86
2023/06/15 09:10:18;;;;;;;3.90;2.25;;;29.60;42.10;;;;;;7371293;19;20019;-85
2023/06/15 09:12:46;;;;;;;5.78;2.60;;;29.70;41.30;;;;;;7366947;19;20011;-84
2023/06/15 09:15:23;;;;;;;5.82;2.42;;;30.00;42.00;;;;;;7371382;19;20029;-85
2023/06/15 09:17:56;;;;;;;7.63;2.30;;;30.20;43.90;;;;;;7368981;19;20014;-85
2023/06/15 09:20:25;;;;;;;4.15;2.50;;;30.40;42.30;;;;;;7370935;19;20041;-87
2023/06/15 09:22:58;;;;;;;3.80;2.33;;;30.30;40.80;;;;;;7376453;19;20014;-88
2023/06/15 09:25:24;;;;;;;7.05;2.60;;;30.30;41.20;;;;;;7380332;19;20015;-88
2023/06/15 09:27:59;;;;;;;8.45;2.58;;;30.00;39.70;;;;;;7379237;19;20018;-92
2023/06/15 09:30:39;;;;;;;5.32;3.67;;;29.80;39.40;;;;;;7379449;19;20021;-89
2023/06/15 09:33:26;;;;;;;4.53;2.72;;;30.00;39.70;;;;;;7376190;19;20022;-87
2023/06/15 09:36:04;;;;;;;26.35;23.70;;;30.00;40.30;;;;;;7386269;19;20022;-89
2023/06/15 09:38:42;;;;;;;6.47;4.15;;;30.30;39.60;;;;;;7387352;19;20836;-92
2023/06/15 09:41:09;;;;;;;6.70;4.57;;;30.50;40.10;;;;;;7383844;19;20022;-88
2023/06/15 09:43:40;;;;;;;5.10;3.28;;;30.70;38.80;;;;;;7394454;19;20082;-86
2023/06/15 09:46:19;;;;;;;6.00;3.50;;;31.00;39.40;;;;;;7383186;19;20106;-89
2023/06/15 09:48:47;;;;;;;10.40;5.85;;;31.20;38.00;;;;;;7376607;19;20029;-86
2023/06/15 09:51:16;;;;;;;7.00;4.10;;;31.20;38.90;;;;;;7375695;19;20023;-83
2023/06/15 09:53:43;;;;;;;7.07;6.18;;;31.20;39.10;;;;;;7378738;19;20014;-85
2023/06/15 09:56:10;;;;;;;8.68;2.90;;;31.20;38.00;;;;;;7377936;19;20023;-86
2023/06/15 09:58:40;;;;;;;7.72;2.67;;;31.20;36.40;;;;;;7379836;19;20026;-84
2023/06/15 10:01:10;;;;;;;6.82;5.05;;;31.40;37.60;;;;;;7378100;19;20082;-84
2023/06/15 10:03:43;;;;;;;21.50;19.20;;;31.50;36.00;;;;;;7377811;19;20368;-84
2023/06/15 10:06:14;;;;;;;12.02;10.52;;;31.40;36.40;;;;;;7376082;19;20022;-87
2023/06/15 10:08:41;;;;;;;6.78;5.60;;;31.30;35.20;;;;;;7379262;19;20106;-88
2023/06/15 10:11:09;;;;;;;8.00;3.33;;;31.60;34.90;;;;;;7377510;19;20022;-88
2023/06/15 10:13:48;;;;;;;5.43;2.40;;;31.60;34.50;;;;;;7376929;19;20023;-90
2023/06/15 10:16:20;;;;;;;5.85;2.97;;;31.30;33.30;;;;;;7376620;19;20010;-83
2023/06/15 10:18:53;;;;;;;12.07;10.87;;;31.30;35.90;;;;;;7376151;19;20019;-86
2023/06/15 10:21:26;;;;;;;6.75;5.00;;;31.40;34.80;;;;;;7373080;19;20014;-85
2023/06/15 10:23:55;;;;;;;5.43;3.97;;;31.30;34.60;;;;;;7373390;19;20014;-85
2023/06/15 10:26:21;;;;;;;5.90;3.65;;;31.30;34.10;;;;;;7376825;19;20086;-86
2023/06/15 10:28:52;;;;;;;4.88;2.38;;;31.20;34.60;;;;;;7370919;19;20045;-85
2023/06/15 10:31:38;;;;;;;9.55;7.45;;;31.80;36.10;;;;;;7367577;19;20019;-86
2023/06/15 10:34:13;;;;;;;4.75;2.58;;;32.00;35.90;;;;;;7366876;19;20026;-85
2023/06/15 10:36:59;;;;;;;12.27;11.05;;;32.00;35.90;;;;;;7375557;19;20485;-85
2023/06/15 10:39:31;;;;;;;8.77;4.25;;;32.40;35.80;;;;;;7373135;19;20011;-85
2023/06/15 10:41:58;;;;;;;7.22;5.53;;;32.40;35.70;;;;;;7373642;19;20282;-91
2023/06/15 10:44:32;;;;;;;8.13;5.28;;;32.70;35.90;;;;;;7368325;19;20035;-86
2023/06/15 10:47:06;;;;;;;5.45;3.85;;;32.90;35.20;;;;;;7374560;19;20026;-86
2023/06/15 10:49:32;;;;;;;5.50;3.05;;;32.40;32.70;;;;;;7367988;19;20018;-86
2023/06/15 10:52:00;;;;;;;4.50;2.08;;;32.40;31.70;;;;;;7369521;19;20022;-87
2023/06/15 10:54:27;;;;;;;3.88;3.00;;;32.00;32.00;;;;;;7371374;19;20025;-89
2023/06/15 10:57:00;;;;;;;4.30;2.28;;;32.00;32.70;;;;;;7376813;19;20025;-87
2023/06/15 10:59:48;;;;;;;5.07;2.92;;;32.10;31.80;;;;;;7375884;19;20015;-86
2023/06/15 11:02:31;;;;;;;5.20;2.55;;;32.10;32.70;;;;;;7374667;19;20517;-85
2023/06/15 11:05:08;;;;;;;3.10;2.20;;;32.10;32.50;;;;;;7371815;19;20039;-85
2023/06/15 11:07:46;;;;;;;5.53;3.65;;;32.40;34.10;;;;;;7375533;19;20018;-85
2023/06/15 11:10:28;;;;;;;5.28;2.63;;;32.70;32.70;;;;;;7375466;19;20018;-86
2023/06/15 11:13:03;;;;;;;5.75;2.70;;;32.80;33.30;;;;;;7377578;19;20585;-87
2023/06/15 11:15:34;;;;;;;4.82;2.72;;;32.90;32.60;;;;;;7371571;19;20022;-87
2023/06/15 11:18:03;;;;;;;4.90;3.42;;;32.80;33.40;;;;;;7378222;19;20074;-87
2023/06/15 11:20:46;;;;;;;11.63;8.35;;;32.60;33.40;;;;;;7369422;19;20024;-85
2023/06/15 11:23:16;;;;;;;4.18;2.63;;;32.70;32.40;;;;;;7367561;19;20067;-87
2023/06/15 11:25:51;;;;;;;8.25;7.22;;;32.90;32.30;;;;;;7373546;19;20052;-86
2023/06/15 11:28:25;;;;;;;31.25;28.45;;;33.00;31.80;;;;;;7373590;19;20025;-84
2023/06/15 11:30:52;;;;;;;8.60;7.72;;;33.10;32.90;;;;;;7371310;19;20022;-86
2023/06/15 11:33:29;;;;;;;8.95;6.53;;;33.10;31.60;;;;;;7374057;19;20014;-85
2023/06/15 11:35:56;;;;;;;7.43;4.53;;;33.30;32.20;;;;;;7371117;19;20473;-87
2023/06/15 11:38:26;;;;;;;17.75;16.10;;;32.90;31.70;;;;;;7368716;19;20018;-86
2023/06/15 11:41:04;;;;;;;5.47;2.63;;;33.00;32.40;;;;;;7371092;19;20022;-86
2023/06/15 11:43:48;;;;;;;5.63;2.70;;;33.20;32.30;;;;;;7373778;19;20015;-88
2023/06/15 11:46:22;;;;;;;5.22;3.13;;;32.80;31.20;;;;;;7375516;19;20014;-88
2023/06/15 11:48:56;;;;;;;5.22;2.83;;;32.70;30.90;;;;;;7385268;19;20593;-90
2023/06/15 11:51:25;;;;;;;5.78;2.50;;;32.60;31.90;;;;;;7377232;19;20033;-92
2023/06/15 11:53:54;;;;;;;6.93;3.80;;;33.10;31.30;;;;;;7378760;19;20014;-89
2023/06/15 11:56:21;;;;;;;6.97;4.32;;;33.10;30.90;;;;;;7375050;19;20018;-88
2023/06/15 11:58:49;;;;;;;7.25;4.00;;;33.10;31.40;;;;;;7376500;19;20018;-88
2023/06/15 12:01:16;;;;;;;7.93;3.47;;;32.90;31.90;;;;;;7374212;19;20755;-88
2023/06/15 12:03:47;;;;;;;25.42;22.75;;;33.10;31.40;;;;;;7377005;19;20074;-89
2023/06/15 12:06:18;;;;;;;14.73;10.93;;;33.40;32.30;;;;;;7368909;19;20015;-88
2023/06/15 12:08:46;;;;;;;9.23;6.47;;;33.30;31.60;;;;;;7376307;19;20055;-87
2023/06/15 12:11:13;;;;;;;11.55;9.70;;;33.70;32.00;;;;;;7372571;19;20045;-88
2023/06/15 12:13:39;;;;;;;5.97;2.47;;;33.70;32.10;;;;;;7376117;19;20092;-89
2023/06/15 12:16:08;;;;;;;12.25;10.20;;;33.90;32.20;;;;;;7375860;19;20584;-88
2023/06/15 12:18:34;;;;;;;14.88;13.43;;;34.00;32.00;;;;;;7375479;19;20021;-90
2023/06/15 12:21:03;;;;;;;6.30;5.38;;;34.00;30.50;;;;;;7377222;19;20498;-87
2023/06/15 12:23:34;;;;;;;9.13;8.23;;;33.80;30.70;;;;;;7375414;19;20022;-87
2023/06/15 12:26:03;;;;;;;3.53;2.50;;;34.00;31.30;;;;;;7373546;19;20014;-88
2023/06/15 12:28:32;;;;;;;7.47;4.53;;;33.70;30.60;;;;;;7372512;19;20905;-88
2023/06/15 12:31:04;;;;;;;6.22;4.25;;;33.70;31.00;;;;;;7368135;19;20043;-88
2023/06/15 12:33:38;;;;;;;4.43;3.22;;;33.80;30.80;;;;;;7373110;19;20018;-87
2023/06/15 12:36:12;;;;;;;9.82;7.68;;;34.20;31.00;;;;;;7369116;19;20018;-86
2023/06/15 12:38:42;;;;;;;29.73;27.15;;;33.90;30.90;;;;;;7375792;19;20022;-88
2023/06/15 12:41:13;;;;;;;13.63;12.20;;;33.40;30.70;;;;;;7370793;19;20048;-91
2023/06/15 12:43:39;;;;;;;7.55;3.88;;;33.80;31.10;;;;;;7376677;19;20374;-90
2023/06/15 12:46:06;;;;;;;6.15;5.53;;;33.90;31.30;;;;;;7374756;19;20067;-92
2023/06/15 12:48:33;;;;;;;7.05;3.17;;;34.10;30.90;;;;;;7379573;19;20026;-89
2023/06/15 12:51:00;;;;;;;5.55;2.95;;;34.10;30.00;;;;;;7376264;19;20014;-87
2023/06/15 12:53:26;;;;;;;6.65;3.88;;;34.30;30.70;;;;;;7370870;19;20043;-89
2023/06/15 12:55:53;;;;;;;17.92;16.08;;;34.40;30.40;;;;;;7367254;19;20352;-84
2023/06/15 12:58:19;;;;;;;11.90;8.40;;;34.60;30.60;;;;;;7372698;19;20063;-89
2023/06/15 13:00:48;;;;;;;10.45;8.68;;;34.80;30.20;;;;;;7373941;19;20059;-88